Temp: 9.6°C   Baro: 1026.0mb
  Wind: 0.0mph   Dir: E (91°)
  Rain: 0.0mm (0.0mm/hr)
  Solar: 0W/m2  Hum: 87%
 
Bath Spa Weather Historical Data
 
Daily Summary for October 18, 2018 Units:  Metric    English   Both
Next Day »
Daily Weekly Monthly Yearly Custom
  Current: High: Low: Average:
Temperature: 9.7 °C 12.7 °C 9.7 °C 11.3 °C
Dew Point: 7.6 °C 10.4 °C 7.6 °C 9 °C
Humidity: 87% 87% 83% 86%
Wind Speed: 1.4km/h 7.9km/h 0.0km/h 0.9km/h
Wind Gust: 3.2km/h 17.7km/h - -
Wind directionEast - - ESE
Pressure: 1026.0 hPa 1026.0 hPa 1024.9 hPa -
Precipitation: 0.0 mm      
Historical Graphs
 
 
Tabular Data for October 18, 2018
Time Temperature Dew Point Pressure Wind direction Wind Speed Wind Gust Humidity Rainfall Rate (Hourly) solar
00:01 12.7 °C 10.4 °C 1024.9 hPa Calm     86% 0.0 mm 0.00 W/m2
00:06 12.6 °C 10.1 °C 1024.9 hPa Calm     85% 0.0 mm 0.00 W/m2
00:11 12.5 °C 10.2 °C 1024.9 hPa Calm     86% 0.0 mm 0.00 W/m2
00:16 12.4 °C 10.1 °C 1024.9 hPa Calm     86% 0.0 mm 0.00 W/m2
00:21 12.4 °C 10.1 °C 1024.9 hPa Calm     86% 0.0 mm 0.00 W/m2
00:26 12.3 °C 10.0 °C 1024.9 hPa Calm     86% 0.0 mm 0.00 W/m2
00:31 12.2 °C 9.9 °C 1024.9 hPa Calm     86% 0.0 mm 0.00 W/m2
00:36 12.2 °C 9.9 °C 1024.9 hPa Calm     86% 0.0 mm 0.00 W/m2
00:41 12.0 °C 9.9 °C 1024.9 hPa Calm     87% 0.0 mm 0.00 W/m2
00:46 11.9 °C 9.6 °C 1025.3 hPa Calm     86% 0.0 mm 0.00 W/m2
00:51 11.9 °C 9.8 °C 1025.3 hPa Calm     87% 0.0 mm 0.00 W/m2
00:56 11.8 °C 9.7 °C 1025.3 hPa Calm     87% 0.0 mm 0.00 W/m2
01:01 11.8 °C 9.7 °C 1025.3 hPa Calm     87% 0.0 mm 0.00 W/m2
01:06 11.8 °C 9.7 °C 1025.3 hPa Calm     87% 0.0 mm 0.00 W/m2
01:11 11.8 °C 9.7 °C 1025.3 hPa Calm     87% 0.0 mm 0.00 W/m2
01:16 11.8 °C 9.7 °C 1025.3 hPa Calm     87% 0.0 mm 0.00 W/m2
01:21 11.8 °C 9.7 °C 1025.3 hPa Calm     87% 0.0 mm 0.00 W/m2
01:26 11.7 °C 9.6 °C 1025.3 hPa Calm     87% 0.0 mm 0.00 W/m2
01:31 11.7 °C 9.6 °C 1025.3 hPa Calm     87% 0.0 mm 0.00 W/m2
01:36 11.7 °C 9.6 °C 1025.3 hPa Calm     87% 0.0 mm 0.00 W/m2
01:41 11.7 °C 9.6 °C 1025.6 hPa Calm     87% 0.0 mm 0.00 W/m2
01:46 11.7 °C 9.6 °C 1025.6 hPa Calm     87% 0.0 mm 0.00 W/m2
01:51 11.6 °C 9.5 °C 1025.6 hPa Calm     87% 0.0 mm 0.00 W/m2
01:57 11.6 °C 9.5 °C 1025.3 hPa Calm     87% 0.0 mm 0.00 W/m2
02:02 11.6 °C 9.5 °C 1025.6 hPa Calm     87% 0.0 mm 0.00 W/m2
02:07 11.6 °C 9.5 °C 1025.6 hPa Calm     87% 0.0 mm 0.00 W/m2
02:12 11.6 °C 9.5 °C 1025.6 hPa Calm     87% 0.0 mm 0.00 W/m2
02:17 11.5 °C 9.4 °C 1025.6 hPa Calm     87% 0.0 mm 0.00 W/m2
02:22 11.5 °C 9.4 °C 1025.6 hPa Calm     87% 0.0 mm 0.00 W/m2
02:27 11.5 °C 9.4 °C 1025.6 hPa Calm     87% 0.0 mm 0.00 W/m2
02:32 11.5 °C 9.4 °C 1025.6 hPa Calm     87% 0.0 mm 0.00 W/m2
02:37 11.5 °C 9.4 °C 1025.6 hPa Calm     87% 0.0 mm 0.00 W/m2
02:42 11.4 °C 9.3 °C 1025.6 hPa Calm     87% 0.0 mm 0.00 W/m2
02:47 11.4 °C 9.3 °C 1025.6 hPa Calm     87% 0.0 mm 0.00 W/m2
02:52 11.4 °C 9.3 °C 1025.6 hPa Calm     87% 0.0 mm 0.00 W/m2
02:57 11.5 °C 9.4 °C 1025.6 hPa Calm     87% 0.0 mm 0.00 W/m2
03:02 11.5 °C 9.2 °C 1025.6 hPa Calm     86% 0.0 mm 0.00 W/m2
03:07 11.5 °C 9.2 °C 1025.6 hPa Calm     86% 0.0 mm 0.00 W/m2
03:12 11.5 °C 9.2 °C 1025.6 hPa Calm     86% 0.0 mm 0.00 W/m2
03:17 11.5 °C 9.2 °C 1025.6 hPa Calm     86% 0.0 mm 0.00 W/m2
03:22 11.5 °C 9.2 °C 1025.6 hPa Calm     86% 0.0 mm 0.00 W/m2
03:27 11.5 °C 9.2 °C 1025.6 hPa Calm     86% 0.0 mm 0.00 W/m2
03:32 11.4 °C 9.1 °C 1025.6 hPa Calm     86% 0.0 mm 0.00 W/m2
03:37 11.4 °C 9.1 °C 1025.6 hPa Calm     86% 0.0 mm 0.00 W/m2
03:42 11.4 °C 9.0 °C 1025.6 hPa Calm     85% 0.0 mm 0.00 W/m2
03:47 11.4 °C 9.0 °C 1025.6 hPa Calm     85% 0.0 mm 0.00 W/m2
03:52 11.4 °C 9.0 °C 1025.6 hPa Calm   16.1 km/h 85% 0.0 mm 0.00 W/m2
03:57 11.4 °C 8.8 °C 1025.6 hPa NNE 6.4 km/h 11.3 km/h 84% 0.0 mm 0.00 W/m2
04:02 11.4 °C 8.8 °C 1025.6 hPa NE 7.9 km/h 12.9 km/h 84% 0.0 mm 0.00 W/m2
04:07 11.3 °C 8.7 °C 1025.6 hPa NE 1.4 km/h 3.2 km/h 84% 0.0 mm 0.00 W/m2
04:12 11.2 °C 8.6 °C 1025.6 hPa NE 6.4 km/h 17.7 km/h 84% 0.0 mm 0.00 W/m2
04:17 11.1 °C 8.5 °C 1025.6 hPa NE 6.4 km/h 14.5 km/h 84% 0.0 mm 0.00 W/m2
04:22 11.1 °C 8.3 °C 1025.6 hPa NE 1.4 km/h 1.6 km/h 83% 0.0 mm 0.00 W/m2
04:27 11.0 °C 8.2 °C 1025.6 hPa SSE 4.7 km/h 8.0 km/h 83% 0.0 mm 0.00 W/m2
04:32 11.0 °C 8.2 °C 1025.6 hPa Calm   3.2 km/h 83% 0.0 mm 0.00 W/m2
04:37 10.9 °C 8.1 °C 1025.6 hPa NNW 4.7 km/h 8.0 km/h 83% 0.0 mm 0.00 W/m2
04:42 10.9 °C 8.1 °C 1025.6 hPa NNW 1.4 km/h 3.2 km/h 83% 0.0 mm 0.00 W/m2
04:47 10.8 °C 8.0 °C 1025.6 hPa NNW 4.7 km/h 4.8 km/h 83% 0.0 mm 0.00 W/m2
04:52 10.8 °C 8.0 °C 1025.6 hPa NE 1.4 km/h 8.0 km/h 83% 0.0 mm 0.00 W/m2
04:57 10.6 °C 7.8 °C 1025.6 hPa Calm   4.8 km/h 83% 0.0 mm 0.00 W/m2
05:02 10.6 °C 8.0 °C 1025.6 hPa Calm   3.2 km/h 84% 0.0 mm 0.00 W/m2
05:07 10.5 °C 7.9 °C 1025.6 hPa ENE 3.2 km/h 8.0 km/h 84% 0.0 mm 0.00 W/m2
05:12 10.4 °C 7.8 °C 1025.6 hPa East 4.7 km/h 6.4 km/h 84% 0.0 mm 0.00 W/m2
05:17 10.4 °C 7.8 °C 1025.6 hPa East 1.4 km/h 3.2 km/h 84% 0.0 mm 0.00 W/m2
05:22 10.3 °C 7.9 °C 1025.6 hPa East 1.4 km/h 4.8 km/h 85% 0.0 mm 0.00 W/m2
05:27 10.2 °C 7.8 °C 1025.6 hPa Calm   4.8 km/h 85% 0.0 mm 0.00 W/m2
05:33 10.1 °C 7.7 °C 1025.6 hPa East 4.7 km/h 4.8 km/h 85% 0.0 mm 0.00 W/m2
05:38 10.0 °C 7.8 °C 1026.0 hPa Calm   3.2 km/h 86% 0.0 mm 0.00 W/m2
05:43 10.0 °C 7.8 °C 1026.0 hPa Calm   1.6 km/h 86% 0.0 mm 0.00 W/m2
05:48 9.9 °C 7.7 °C 1026.0 hPa Calm     86% 0.0 mm 0.00 W/m2
05:53 9.8 °C 7.6 °C 1026.0 hPa Calm     86% 0.0 mm 0.00 W/m2
05:58 9.7 °C 7.6 °C 1026.0 hPa Calm     87% 0.0 mm 0.00 W/m2
06:03 9.7 °C 7.6 °C 1026.0 hPa East 1.4 km/h 3.2 km/h 87% 0.0 mm 0.00 W/m2